MMSD/SJD METAR and TAF weather

Enter ICAO airport designator
Station Type Date Time Source
MMSD METAR 2020/04/07 02:41 UTC NOAA

MMSD 070241Z 30004KT 12SM SCT120 OVC250 23/08 A3001 RMK SLP146 52007 941 8/037


Station Type Date Time Source
MMSD Decoded METAR 2020/04/07 02:41 UTC NOAA

San Jose Del Cabo , Mexico (MMSD) 23-09N 109-42W
Apr 06, 2020 - 10:41 PM EDT / 2020.04.07 0241 UTC
Wind: from the WNW (300 degrees) at 5 MPH (4 KT):0
Visibility: 12 mile(s):0
Sky conditions: overcast
Temperature: 73 F (23 C)
Dew Point: 46 F (8 C)
Relative Humidity: 38%
Pressure (altimeter): 30.01 in. Hg (1016 hPa)
Pressure tendency: 0.02 inches (0.7 hPa) higher than three hours ago
ob: MMSD 070241Z 30004KT 12SM SCT120 OVC250 23/08 A3001 RMK SLP146 52007 941 8/037
cycle: 2

Station Type Date Time Source
MMSD TAF 2020/04/07 06:57 UTC NOAA

TAF MMSD 070450Z 0706/0806 30005KT P6SM SCT120 OVC250
FM071600 30010KT P6SM SCT120 BKN250
FM080300 30005KT P6SM OVC250

Example: see airport list